createdAt,value
2019-03-04T00:00:43.291Z,96650.81
2019-03-04T00:03:19.431Z,96641.48
2019-03-04T00:05:54.060Z,96626.39
2019-03-04T00:08:28.701Z,96615.70
2019-03-04T00:11:01.720Z,96634.94
2019-03-04T00:13:36.152Z,96634.40
2019-03-04T00:16:10.774Z,96636.93
2019-03-04T00:18:43.873Z,96626.00
2019-03-04T00:21:18.292Z,96620.45
2019-03-04T00:23:53.168Z,96605.97
2019-03-04T00:26:27.745Z,96623.97
2019-03-04T00:29:01.048Z,96617.05
2019-03-04T00:31:35.319Z,96638.69
2019-03-04T00:34:09.778Z,96638.69
2019-03-04T00:36:42.861Z,96621.70
2019-03-04T00:39:17.266Z,96627.87
2019-03-04T00:41:51.864Z,96618.33
2019-03-04T00:44:24.808Z,96608.64
2019-03-04T00:46:59.129Z,96597.45
2019-03-04T00:49:33.675Z,96600.71
2019-03-04T00:52:08.276Z,96600.71
2019-03-04T00:54:45.893Z,96596.42
2019-03-04T00:57:18.822Z,96611.29
2019-03-04T00:59:53.307Z,96594.68
2019-03-04T01:02:28.129Z,96595.44
2019-03-04T01:05:02.696Z,96581.73
2019-03-04T01:07:37.123Z,96581.73
2019-03-04T01:10:15.482Z,96563.34
2019-03-04T01:12:49.287Z,96563.34
2019-03-04T01:15:24.351Z,96557.58
2019-03-04T01:17:58.868Z,96556.06
2019-03-04T01:20:33.146Z,96550.26
2019-03-04T01:23:07.910Z,96518.92
2019-03-04T01:25:44.437Z,96518.92
2019-03-04T01:28:28.782Z,96521.19
2019-03-04T01:31:04.882Z,96522.22
2019-03-04T01:33:39.924Z,96512.75
2019-03-04T01:36:17.151Z,96526.47
2019-03-04T01:38:51.787Z,96516.91
2019-03-04T01:41:24.798Z,96516.91
2019-03-04T01:43:59.294Z,96507.35
2019-03-04T01:46:33.811Z,96514.89
2019-03-04T01:49:06.893Z,96518.16
2019-03-04T01:51:41.303Z,96517.17
2019-03-04T01:54:15.947Z,96516.02
2019-03-04T01:56:50.444Z,96518.92
2019-03-04T01:59:24.962Z,96507.22
2019-03-04T02:01:59.462Z,96510.37
2019-03-04T02:04:36.937Z,96510.37
2019-03-04T02:07:11.289Z,96508.34
2019-03-04T02:09:45.800Z,96513.14
2019-03-04T02:12:18.821Z,96515.39
2019-03-04T02:14:53.123Z,96520.69
2019-03-04T02:17:27.679Z,96501.55
2019-03-04T02:20:02.286Z,96500.06
2019-03-04T02:22:37.124Z,96483.44
2019-03-04T02:25:14.286Z,96482.94
2019-03-04T02:27:56.892Z,96480.17
2019-03-04T02:30:29.973Z,96475.03
2019-03-04T02:33:03.287Z,96471.24
2019-03-04T02:35:37.787Z,96463.08
2019-03-04T02:38:10.806Z,96456.78
2019-03-04T02:40:44.960Z,96462.94
2019-03-04T02:43:19.335Z,96455.79
2019-03-04T02:45:53.732Z,96451.64
2019-03-04T02:48:28.285Z,96449.99
2019-03-04T02:51:02.748Z,96438.03
2019-03-04T02:53:36.877Z,96432.37
2019-03-04T02:57:46.370Z,96421.28
2019-03-04T03:00:22.297Z,96415.52
2019-03-04T03:02:56.954Z,96404.05
2019-03-04T03:05:30.030Z,96393.10
2019-03-04T03:08:04.300Z,96386.59
2019-03-04T03:10:38.951Z,96377.00
2019-03-04T03:13:11.812Z,96383.91
2019-03-04T03:15:46.197Z,96383.91
2019-03-04T03:18:20.706Z,96372.83
2019-03-04T03:20:55.090Z,96382.27
2019-03-04T03:23:29.864Z,96372.83
2019-03-04T03:26:04.156Z,96372.83
2019-03-04T03:28:39.842Z,96373.58
2019-03-04T03:31:12.893Z,96357.94
2019-03-04T03:33:45.873Z,96350.47
2019-03-04T03:36:19.960Z,96338.61
2019-03-04T03:38:54.454Z,96343.27
2019-03-04T03:41:28.953Z,96347.55
2019-03-04T03:44:03.390Z,96345.28
2019-03-04T03:46:37.946Z,96347.80
2019-03-04T03:49:13.419Z,96350.70
2019-03-04T03:51:48.113Z,96350.70
2019-03-04T03:54:29.140Z,96353.94
2019-03-04T03:57:22.242Z,96362.73
2019-03-04T04:00:04.675Z,96352.96
2019-03-04T04:02:41.300Z,96352.96
2019-03-04T04:05:17.993Z,96349.36
2019-03-04T04:07:57.296Z,96349.36
2019-03-04T04:10:35.287Z,96340.77
2019-03-04T04:13:09.968Z,96321.36
2019-03-04T04:15:44.772Z,96327.80
2019-03-04T04:18:19.141Z,96306.91
2019-03-04T04:20:53.712Z,96292.33
2019-03-04T04:23:28.094Z,96292.33
2019-03-04T04:26:04.364Z,96275.66
2019-03-04T04:28:38.928Z,96275.66
2019-03-04T04:31:12.005Z,96258.34
2019-03-04T04:33:44.886Z,96258.34
2019-03-04T04:36:18.023Z,96258.84
2019-03-04T04:38:51.113Z,96246.75
2019-03-04T04:41:23.810Z,96247.13
2019-03-04T04:43:58.287Z,96239.31
2019-03-04T04:46:55.597Z,96239.31
2019-03-04T04:49:37.416Z,96236.81
2019-03-04T04:52:12.689Z,96230.35
2019-03-04T04:54:47.285Z,96231.51
2019-03-04T04:57:21.828Z,96225.34
2019-03-04T04:59:54.800Z,96235.54
2019-03-04T05:02:29.286Z,96217.66
2019-03-04T05:05:03.892Z,96223.83
2019-03-04T05:07:58.785Z,96225.55
2019-03-04T05:10:34.285Z,96221.05
2019-03-04T05:13:09.005Z,96212.11
2019-03-04T05:15:45.274Z,96213.33
2019-03-04T05:18:19.891Z,96209.30
2019-03-04T05:20:52.896Z,96200.74
2019-03-04T05:23:26.007Z,96189.11
2019-03-04T05:25:58.904Z,96195.11
2019-03-04T05:28:33.286Z,96174.02
2019-03-04T05:31:07.760Z,96174.02
2019-03-04T05:33:40.695Z,96172.58
2019-03-04T05:36:15.287Z,96166.86
2019-03-04T05:38:50.110Z,96158.86
2019-03-04T05:41:24.667Z,96164.86
2019-03-04T05:43:59.281Z,96164.86
2019-03-04T05:46:42.948Z,96143.31
2019-03-04T05:49:17.287Z,96159.31
2019-03-04T05:51:51.978Z,96143.19
2019-03-04T05:54:26.711Z,96153.20
2019-03-04T05:57:00.960Z,96128.94
2019-03-04T05:59:35.758Z,96123.27
2019-03-04T06:02:12.883Z,96112.23
2019-03-04T06:04:48.526Z,96099.63
2019-03-04T06:07:50.789Z,96099.63
2019-03-04T06:10:32.601Z,96121.58
2019-03-04T06:13:09.282Z,96084.83
2019-03-04T06:15:43.409Z,96084.13
2019-03-04T06:18:18.296Z,96094.59
2019-03-04T06:20:52.928Z,96066.21
2019-03-04T06:23:27.432Z,96067.16
2019-03-04T06:26:01.968Z,96067.53
2019-03-04T06:28:36.717Z,96081.69
2019-03-04T06:31:09.709Z,96080.34
2019-03-04T06:33:43.954Z,96094.03
2019-03-04T06:36:18.294Z,96077.59
2019-03-04T06:38:52.890Z,96084.28
2019-03-04T06:41:27.303Z,96078.09
2019-03-04T06:44:02.105Z,96077.03
2019-03-04T06:46:36.686Z,96065.09
2019-03-04T06:49:11.337Z,96063.98
2019-03-04T06:51:50.960Z,96063.41
2019-03-04T06:55:26.497Z,96044.63
2019-03-04T06:58:04.139Z,96032.80
2019-03-04T07:01:41.315Z,96022.84
2019-03-04T07:04:24.463Z,96008.38
2019-03-04T07:07:01.299Z,96005.25
2019-03-04T07:09:36.320Z,96005.25
2019-03-04T07:12:11.091Z,95994.59
2019-03-04T07:14:45.872Z,95992.34
2019-03-04T07:17:18.872Z,95997.16
2019-03-04T07:20:07.770Z,95977.20
2019-03-04T07:22:42.275Z,95987.17
2019-03-04T07:25:17.983Z,96001.61
2019-03-04T07:27:52.659Z,95997.00
2019-03-04T07:30:27.284Z,95997.00
2019-03-04T07:33:02.266Z,95988.44
2019-03-04T07:35:36.947Z,95990.49
2019-03-04T07:39:04.779Z,95951.47
2019-03-04T07:41:40.669Z,95968.13
2019-03-04T07:44:15.162Z,95944.48
2019-03-04T07:46:49.793Z,95934.87
2019-03-04T07:49:26.085Z,95932.72
2019-03-04T07:52:00.450Z,95918.05
2019-03-04T07:54:35.281Z,95918.05
2019-03-04T07:57:09.878Z,95889.73
2019-03-04T07:59:44.358Z,95881.41
2019-03-04T08:02:20.609Z,95878.22
2019-03-04T08:04:56.789Z,95867.33
2019-03-04T08:07:44.299Z,95862.19
2019-03-04T08:11:45.956Z,95843.17
2019-03-04T08:14:28.124Z,95852.68
2019-03-04T08:17:06.969Z,95840.98
2019-03-04T08:19:47.328Z,95822.75
2019-03-04T08:22:32.439Z,95825.79
2019-03-04T08:25:04.952Z,95807.71
2019-03-04T08:27:39.921Z,95806.45
2019-03-04T08:30:20.956Z,95806.45
2019-03-04T08:32:55.897Z,95794.16
2019-03-04T08:35:32.578Z,95797.34
2019-03-04T08:38:10.286Z,95796.05
2019-03-04T08:40:45.358Z,95805.94
2019-03-04T08:43:24.277Z,95804.29
2019-03-04T08:46:04.562Z,95789.06
2019-03-04T08:48:39.279Z,95779.84
2019-03-04T08:51:13.936Z,95779.84
2019-03-04T08:53:48.268Z,95767.82
2019-03-04T08:56:22.935Z,95788.08
2019-03-04T08:58:57.341Z,95776.55
2019-03-04T09:02:10.771Z,95776.55
2019-03-04T09:04:51.324Z,95776.84
2019-03-04T09:07:31.076Z,95775.48
2019-03-04T09:10:11.480Z,95760.36
2019-03-04T09:12:48.497Z,95760.36
2019-03-04T09:15:26.663Z,95762.09
2019-03-04T09:18:03.275Z,95752.51
2019-03-04T09:20:41.280Z,95752.95
2019-03-04T09:23:20.315Z,95782.79
2019-03-04T09:26:03.949Z,95772.73
2019-03-04T09:28:39.273Z,95790.87
2019-03-04T09:31:24.885Z,95798.44
2019-03-04T09:34:02.726Z,95798.44
2019-03-04T09:36:36.221Z,95800.30
2019-03-04T09:39:12.619Z,95778.45
2019-03-04T09:41:52.742Z,95767.02
2019-03-04T09:44:26.276Z,95779.82
2019-03-04T09:47:01.304Z,95780.09
2019-03-04T09:49:36.233Z,95803.98
2019-03-04T09:52:11.373Z,95803.98
2019-03-04T09:54:47.979Z,95774.13
2019-03-04T09:57:28.002Z,95798.63
2019-03-04T10:00:06.312Z,95797.08
2019-03-04T10:02:47.387Z,95796.36
2019-03-04T10:06:17.804Z,95796.36
2019-03-04T10:09:30.998Z,95811.16
2019-03-04T10:12:59.811Z,95825.80
2019-03-04T10:16:18.888Z,95832.77
2019-03-04T10:19:51.692Z,95885.86
2019-03-04T10:22:54.397Z,95788.05
2019-03-04T10:27:02.320Z,95803.66
2019-03-04T10:30:49.364Z,95795.91
2019-03-04T10:34:25.296Z,95773.50
2019-03-04T10:37:57.883Z,95736.98
2019-03-04T10:41:24.394Z,95726.92
2019-03-04T10:45:03.500Z,95715.39
2019-03-04T10:47:50.407Z,95724.13
2019-03-04T10:50:28.618Z,95724.13
2019-03-04T10:53:03.721Z,95776.50
2019-03-04T10:55:50.927Z,95692.59
2019-03-04T10:58:35.290Z,95746.28
2019-03-04T11:01:17.910Z,95683.72
2019-03-04T11:03:56.294Z,95683.72
2019-03-04T11:07:28.226Z,95706.41
2019-03-04T11:09:24.499Z,95718.34
2019-03-04T11:11:59.277Z,95718.34
2019-03-04T11:14:38.455Z,95728.19
2019-03-04T11:17:18.331Z,95753.48
2019-03-04T11:20:12.954Z,95727.54
2019-03-04T11:22:54.240Z,95692.30
2019-03-04T11:25:30.900Z,95692.30
2019-03-04T11:28:08.443Z,95684.71
2019-03-04T11:30:56.051Z,95747.46
2019-03-04T11:33:42.765Z,95716.49
2019-03-04T11:36:17.704Z,95732.83
2019-03-04T11:39:02.453Z,95745.72
2019-03-04T11:41:38.981Z,95753.13
2019-03-04T11:44:17.146Z,95723.23
2019-03-04T11:46:54.676Z,95754.47
2019-03-04T11:49:27.930Z,95688.69
2019-03-04T11:52:01.136Z,95688.69
2019-03-04T11:59:52.297Z,95710.02
2019-03-04T12:02:27.768Z,95703.02
2019-03-04T12:05:08.216Z,95710.37
2019-03-04T12:07:43.320Z,95710.37
2019-03-04T12:10:24.383Z,95752.00
2019-03-04T12:13:07.806Z,95673.42
2019-03-04T12:15:51.599Z,95700.06
2019-03-04T12:18:29.617Z,95700.06
2019-03-04T12:21:12.394Z,95686.13
2019-03-04T12:23:47.394Z,95709.66
2019-03-04T12:26:23.465Z,95733.34
2019-03-04T12:29:01.676Z,95697.80
2019-03-04T12:31:42.930Z,95710.15
2019-03-04T12:34:26.427Z,95690.40
2019-03-04T12:37:12.910Z,95690.40
2019-03-04T12:39:46.287Z,95685.95
2019-03-04T12:42:21.359Z,95711.35
2019-03-04T12:44:58.566Z,95688.97
2019-03-04T12:47:34.293Z,95699.25
2019-03-04T12:50:12.790Z,95693.22
2019-03-04T12:53:09.638Z,95696.33
2019-03-04T12:56:01.890Z,95687.75
2019-03-04T12:58:35.789Z,95680.42
2019-03-04T13:01:10.240Z,95686.98
2019-03-04T13:03:44.894Z,95646.66
2019-03-04T13:06:19.343Z,95691.84
2019-03-04T13:08:53.900Z,95691.84
2019-03-04T13:11:28.454Z,95683.42
2019-03-04T13:14:03.103Z,95705.31
2019-03-04T13:16:37.879Z,95714.76
2019-03-04T13:19:13.287Z,95714.78
2019-03-04T13:21:47.857Z,95707.56
2019-03-04T13:24:21.017Z,95709.34
2019-03-04T13:26:55.293Z,95710.20
2019-03-04T13:29:29.950Z,95691.80
2019-03-04T13:32:04.289Z,95708.55
2019-03-04T13:34:38.762Z,95701.84
2019-03-04T13:37:13.138Z,95699.08
2019-03-04T13:39:47.754Z,95687.54
2019-03-04T13:42:20.809Z,95689.19
2019-03-04T13:44:55.290Z,95699.32
2019-03-04T13:47:29.950Z,95699.32
2019-03-04T13:50:04.294Z,95696.20
2019-03-04T13:52:39.003Z,95711.66
2019-03-04T13:55:14.290Z,95704.06
2019-03-04T13:57:48.939Z,95704.06
2019-03-04T14:00:23.762Z,95704.25
2019-03-04T14:02:58.129Z,95702.31
2019-03-04T14:05:32.783Z,95705.13
2019-03-04T14:08:06.409Z,95694.33
2019-03-04T14:10:40.797Z,95694.69
2019-03-04T14:13:15.493Z,95681.33
2019-03-04T14:15:50.278Z,95685.09
2019-03-04T14:18:24.707Z,95688.92
2019-03-04T14:20:57.816Z,95688.92
2019-03-04T14:23:32.115Z,95700.03
2019-03-04T14:26:06.887Z,95683.94
2019-03-04T14:28:39.945Z,95683.17
2019-03-04T14:31:14.274Z,95687.22
2019-03-04T14:33:55.113Z,95673.56
2019-03-04T14:36:29.808Z,95685.33
2019-03-04T14:39:04.573Z,95688.27
2019-03-04T14:41:45.678Z,95697.60
2019-03-04T14:44:20.253Z,95670.45
2019-03-04T14:46:56.278Z,95666.84
2019-03-04T14:49:30.758Z,95675.80
2019-03-04T14:52:04.056Z,95675.08
2019-03-04T14:54:38.278Z,95671.69
2019-03-04T14:57:12.730Z,95689.98
2019-03-04T14:59:47.143Z,95673.63
2019-03-04T15:02:21.644Z,95680.20
2019-03-04T15:04:56.987Z,95680.20
2019-03-04T15:07:31.723Z,95692.28
2019-03-04T15:10:06.290Z,95724.55
2019-03-04T15:12:40.746Z,95714.59
2019-03-04T15:15:14.606Z,95729.11
2019-03-04T15:17:49.279Z,95735.86
2019-03-04T15:20:24.691Z,95728.92
2019-03-04T15:22:59.284Z,95728.92
2019-03-04T15:25:36.284Z,95743.66
2019-03-04T15:28:17.607Z,95727.20
2019-03-04T15:31:00.025Z,95719.09
2019-03-04T15:33:36.279Z,95738.73
2019-03-04T15:36:12.956Z,95697.42
2019-03-04T15:38:49.152Z,95732.06
2019-03-04T15:41:25.290Z,95732.06
2019-03-04T15:44:00.143Z,95691.65
2019-03-04T15:46:35.967Z,95689.54
2019-03-04T15:49:10.795Z,95671.45
2019-03-04T15:51:45.463Z,95674.05
2019-03-04T15:54:20.289Z,95673.00
2019-03-04T15:57:00.278Z,95683.91
2019-03-04T15:59:36.269Z,95702.53
2019-03-04T16:02:13.271Z,95679.04
2019-03-04T16:04:47.871Z,95679.08
2019-03-04T16:07:22.276Z,95679.08
2019-03-04T16:09:56.958Z,95697.85
2019-03-04T16:12:33.266Z,95701.58
2019-03-04T16:15:11.775Z,95725.69
2019-03-04T16:17:46.617Z,95733.66
2019-03-04T16:20:21.323Z,95734.94
2019-03-04T16:22:56.313Z,95787.72
2019-03-04T16:25:33.801Z,95805.76
2019-03-04T16:28:16.664Z,95807.05
2019-03-04T16:30:51.900Z,95800.41
2019-03-04T16:33:27.404Z,95800.09
2019-03-04T16:36:07.473Z,95800.09
2019-03-04T16:38:42.407Z,95776.19
2019-03-04T16:41:21.281Z,95760.25
2019-03-04T16:43:56.263Z,95747.11
2019-03-04T16:46:31.140Z,95747.41
2019-03-04T16:49:07.301Z,95745.07
2019-03-04T16:51:43.958Z,95747.13
2019-03-04T16:54:20.946Z,95744.36
2019-03-04T16:56:56.500Z,95744.36
2019-03-04T16:59:31.323Z,95753.85
2019-03-04T17:02:07.285Z,95747.05
2019-03-04T17:04:44.968Z,95764.77
2019-03-04T17:07:36.726Z,95765.95
2019-03-04T17:10:15.020Z,95765.95
2019-03-04T17:12:51.725Z,95783.20
2019-03-04T17:15:35.260Z,95799.73
2019-03-04T17:18:17.569Z,95814.01
2019-03-04T17:20:52.283Z,95811.23
2019-03-04T17:23:31.949Z,95831.00
2019-03-04T17:26:06.417Z,95836.01
2019-03-04T17:28:44.285Z,95846.84
2019-03-04T17:31:25.166Z,95836.30
2019-03-04T17:34:00.517Z,95835.86
2019-03-04T17:36:40.259Z,95847.16
2019-03-04T17:39:14.947Z,95854.00
2019-03-04T17:41:49.944Z,95862.39
2019-03-04T17:44:26.279Z,95853.46
2019-03-04T17:47:01.287Z,95853.46
2019-03-04T17:49:38.875Z,95862.52
2019-03-04T17:52:13.310Z,95870.66
2019-03-04T17:54:48.287Z,95879.86
2019-03-04T17:57:25.038Z,95879.86
2019-03-04T17:59:59.770Z,95871.61
2019-03-04T18:02:34.284Z,95871.61
2019-03-04T18:05:10.401Z,95876.33
2019-03-04T18:07:45.338Z,95874.42
2019-03-04T18:10:20.649Z,95880.02
2019-03-04T18:12:57.610Z,95907.73
2019-03-04T18:15:32.274Z,95909.72
2019-03-04T18:18:07.252Z,95927.41
2019-03-04T18:20:42.275Z,95937.45
2019-03-04T18:23:17.130Z,95962.63
2019-03-04T18:26:02.413Z,95952.60
2019-03-04T18:29:24.128Z,95960.97
2019-03-04T18:32:54.778Z,95986.03
2019-03-04T18:35:57.826Z,95978.23
2019-03-04T18:39:14.947Z,95995.78
2019-03-04T18:42:34.427Z,95992.78
2019-03-04T18:46:31.816Z,96011.39
2019-03-04T18:49:05.141Z,96026.48
2019-03-04T18:51:41.137Z,96015.18
2019-03-04T18:54:21.627Z,96015.18
2019-03-04T18:56:56.611Z,96008.77
2019-03-04T18:59:32.878Z,96027.14
2019-03-04T19:02:15.946Z,96018.30
2019-03-04T19:04:50.667Z,96016.20
2019-03-04T19:07:27.372Z,96029.00
2019-03-04T19:10:02.330Z,96032.77
2019-03-04T19:12:41.308Z,96047.33
2019-03-04T19:15:16.325Z,96043.17
2019-03-04T19:17:52.575Z,96049.11
2019-03-04T19:20:35.715Z,96046.33
2019-03-04T19:23:09.291Z,96068.72
2019-03-04T19:25:48.162Z,96075.75
2019-03-04T19:28:28.284Z,96081.83
2019-03-04T19:31:03.269Z,96089.53
2019-03-04T19:33:37.957Z,96109.70
2019-03-04T19:36:12.999Z,96110.80
2019-03-04T19:38:48.924Z,96111.98
2019-03-04T19:41:25.290Z,96111.98
2019-03-04T19:44:00.146Z,96128.77
2019-03-04T19:46:35.278Z,96131.94
2019-03-04T19:49:13.893Z,96151.61
2019-03-04T19:51:48.534Z,96150.06
2019-03-04T19:54:23.685Z,96146.73
2019-03-04T19:57:00.287Z,96159.13
2019-03-04T19:59:35.290Z,96161.45
2019-03-04T20:02:12.488Z,96165.33
2019-03-04T20:04:48.314Z,96165.80
2019-03-04T20:07:23.952Z,96174.11
2019-03-04T20:10:00.342Z,96177.28
2019-03-04T20:12:36.294Z,96186.14
2019-03-04T20:15:14.939Z,96186.01
2019-03-04T20:17:48.304Z,96206.34
2019-03-04T20:20:25.746Z,96206.34
2019-03-04T20:23:12.394Z,96201.91
2019-03-04T20:25:54.110Z,96202.98
2019-03-04T20:28:30.578Z,96192.47
2019-03-04T20:31:11.314Z,96201.55
2019-03-04T20:33:51.304Z,96200.66
2019-03-04T20:36:26.923Z,96221.59
2019-03-04T20:39:05.360Z,96218.98
2019-03-04T20:41:40.338Z,96218.98
2019-03-04T20:44:17.311Z,96221.59
2019-03-04T20:46:53.451Z,96216.77
2019-03-04T20:49:30.120Z,96220.81
2019-03-04T20:52:06.288Z,96231.11
2019-03-04T20:54:41.287Z,96232.73
2019-03-04T20:57:16.299Z,96240.88
2019-03-04T20:59:51.260Z,96228.36
2019-03-04T21:02:26.411Z,96249.13
2019-03-04T21:05:01.504Z,96245.71
2019-03-04T21:07:37.775Z,96243.55
2019-03-04T21:10:11.871Z,96256.67
2019-03-04T21:12:48.103Z,96262.94
2019-03-04T21:15:23.603Z,96263.77
2019-03-04T21:17:59.630Z,96265.67
2019-03-04T21:20:34.459Z,96268.91
2019-03-04T21:23:11.615Z,96259.58
2019-03-04T21:26:24.273Z,96266.52
2019-03-04T21:29:39.986Z,96274.83
2019-03-04T21:32:34.987Z,96275.66
2019-03-04T21:36:07.771Z,96275.66
2019-03-04T21:38:41.053Z,96284.59
2019-03-04T21:42:02.424Z,96285.50
2019-03-04T21:46:08.361Z,96285.50
2019-03-04T21:48:53.596Z,96299.09
2019-03-04T21:52:19.726Z,96305.73
2019-03-04T21:54:51.338Z,96315.91
2019-03-04T21:57:50.718Z,96315.91
2019-03-04T22:00:42.311Z,96323.06
2019-03-04T22:03:24.512Z,96329.72
2019-03-04T22:05:59.726Z,96333.81
2019-03-04T22:08:35.297Z,96335.70
2019-03-04T22:11:11.146Z,96329.55
2019-03-04T22:13:45.767Z,96344.45
2019-03-04T22:16:20.289Z,96339.62
2019-03-04T22:18:57.295Z,96339.62
2019-03-04T22:21:31.790Z,96335.98
2019-03-04T22:24:06.404Z,96339.05
2019-03-04T22:26:41.098Z,96348.86
2019-03-04T22:29:17.877Z,96354.92
2019-03-04T22:31:53.282Z,96353.66
2019-03-04T22:34:30.939Z,96364.18
2019-03-04T22:37:16.722Z,96356.61
2019-03-04T22:39:56.307Z,96362.66
2019-03-04T22:42:30.812Z,96364.63
2019-03-04T22:45:05.983Z,96358.89
2019-03-04T22:47:40.733Z,96362.83
2019-03-04T22:50:18.313Z,96362.83
2019-03-04T22:52:54.288Z,96366.75
2019-03-04T22:55:32.550Z,96368.20
2019-03-04T22:58:09.142Z,96373.91
2019-03-04T23:01:43.268Z,96378.77
2019-03-04T23:05:00.941Z,96378.77
2019-03-04T23:07:54.810Z,96392.38
2019-03-04T23:10:40.824Z,96394.23
2019-03-04T23:14:20.295Z,96405.06
2019-03-04T23:17:15.917Z,96402.52
2019-03-04T23:19:51.334Z,96402.52
2019-03-04T23:22:25.901Z,96407.34
2019-03-04T23:25:00.332Z,96404.23
2019-03-04T23:27:34.949Z,96410.73
2019-03-04T23:30:12.702Z,96424.46
2019-03-04T23:32:47.145Z,96411.20
2019-03-04T23:35:21.718Z,96396.04
2019-03-04T23:37:56.287Z,96396.04
2019-03-04T23:40:30.882Z,96411.34
2019-03-04T23:43:04.077Z,96411.73
2019-03-04T23:45:38.326Z,96415.97
2019-03-04T23:48:12.922Z,96415.97
2019-03-04T23:50:45.794Z,96413.87
2019-03-04T23:53:20.265Z,96418.36
2019-03-04T23:55:54.757Z,96420.29
2019-03-04T23:58:27.871Z,96416.48
